Time;durP1;ratioP1;P1;durP2;ratioP2;P2;SDS_P1;SDS_P2;PMS_P1;PMS_P2;Temp;Humidity;BMP_temperature;BMP_pressure;BME280_temperature;BME280_humidity;BME280_pressure;Samples;Min_cycle;Max_cycle;Signal;HPM_P1;HPM_P2
2023/01/24 00:00:12;;;;;;;;;44.00;36.00;;;;;3.72;100.00;100907.25;6314875;20;2861821;-59
2023/01/24 00:02:41;;;;;;;;;35.00;30.00;;;;;3.88;100.00;100907.06;6313862;20;2848224;-59
2023/01/24 00:05:10;;;;;;;;;34.00;31.00;;;;;3.82;100.00;100905.38;6285100;20;2858694;-59
2023/01/24 00:07:40;;;;;;;;;31.00;25.67;;;;;3.88;100.00;100904.41;6316498;20;2852487;-59
2023/01/24 00:10:11;;;;;;;;;37.00;30.67;;;;;3.96;100.00;100908.69;6309675;20;2869081;-59
2023/01/24 00:12:40;;;;;;;;;35.00;29.50;;;;;3.94;100.00;100907.81;6317988;20;2863992;-59
2023/01/24 00:15:10;;;;;;;;;36.00;28.50;;;;;3.94;100.00;100904.28;6281604;20;2839936;-58
2023/01/24 00:17:39;;;;;;;;;44.00;35.00;;;;;3.77;100.00;100904.56;6283741;20;3631545;-59
2023/01/24 00:20:10;;;;;;;;;45.33;36.00;;;;;3.87;100.00;100910.59;6314471;20;3626335;-59
2023/01/24 00:22:39;;;;;;;;;36.33;36.00;;;;;3.77;100.00;100903.69;6313783;20;2860701;-59
2023/01/24 00:25:09;;;;;;;;;45.67;34.33;;;;;3.84;100.00;100907.97;6317119;20;2873357;-59
2023/01/24 00:27:38;;;;;;;;;39.33;34.00;;;;;3.80;100.00;100914.25;6312343;20;3624232;-59
2023/01/24 00:30:09;;;;;;;;;37.00;30.00;;;;;3.91;100.00;100920.28;6315142;20;2845095;-59
2023/01/24 00:32:38;;;;;;;;;46.33;36.00;;;;;3.89;100.00;100914.97;6283333;20;2873386;-59
2023/01/24 00:35:08;;;;;;;;;31.50;23.50;;;;;3.83;100.00;100923.06;6314351;20;2849899;-59
2023/01/24 00:37:36;;;;;;;;;36.50;32.50;;;;;3.66;100.00;100928.59;6285641;20;2855516;-59
2023/01/24 00:40:07;;;;;;;;;35.00;31.00;;;;;3.74;100.00;100926.72;6281938;20;2860700;-59
2023/01/24 00:42:36;;;;;;;;;35.00;30.00;;;;;3.80;100.00;100928.41;6284221;20;2848190;-60
2023/01/24 00:45:06;;;;;;;;;36.00;30.00;;;;;3.90;100.00;100927.38;6282676;20;2852391;-59
2023/01/24 00:47:34;;;;;;;;;28.00;25.50;;;;;3.77;100.00;100920.50;6285262;20;2844063;-59
2023/01/24 00:50:04;;;;;;;;;35.00;30.00;;;;;3.65;100.00;100937.44;6282835;20;2849296;-59
2023/01/24 00:52:33;;;;;;;;;39.00;26.67;;;;;3.87;100.00;100938.06;6285107;20;2874311;-59
2023/01/24 00:55:03;;;;;;;;;38.33;29.00;;;;;3.82;100.00;100939.91;6315048;20;2864952;-59
2023/01/24 00:57:32;;;;;;;;;33.50;27.00;;;;;3.85;100.00;100938.97;6315377;20;2860678;-59
2023/01/24 01:00:01;;;;;;;;;36.50;31.50;;;;;3.89;100.00;100936.25;6282136;20;2867974;-60
2023/01/24 01:02:29;;;;;;;;;29.00;25.50;;;;;3.81;100.00;100943.44;6285108;20;2843248;-59
2023/01/24 01:04:58;;;;;;;;;26.50;25.00;;;;;3.75;100.00;100940.88;6284920;20;2852556;-60
2023/01/24 01:07:27;;;;;;;;;43.00;36.00;;;;;3.58;100.00;100945.50;6279953;20;2844131;-59
2023/01/24 01:09:55;;;;;;;;;36.50;29.50;;;;;3.68;100.00;100945.38;6281634;20;2849266;-60
2023/01/24 01:12:24;;;;;;;;;28.00;23.00;;;;;3.49;100.00;100946.53;6283405;20;2835880;-59
2023/01/24 01:14:53;;;;;;;;;25.00;23.00;;;;;3.83;100.00;100946.97;6279898;20;2844099;-60
2023/01/24 01:17:22;;;;;;;;;32.50;27.50;;;;;3.86;100.00;100949.56;6284546;20;2836759;-59
2023/01/24 01:19:53;;;;;;;;;36.50;32.00;;;;;3.83;100.00;100951.41;6281088;20;2862271;-59
2023/01/24 01:22:22;;;;;;;;;37.33;28.00;;;;;3.85;100.00;100949.59;6283348;20;2867803;-59
2023/01/24 01:24:51;;;;;;;;;35.50;31.00;;;;;3.83;100.00;100952.28;6314581;20;2854470;-59
2023/01/24 01:27:20;;;;;;;;;34.00;27.00;;;;;3.68;100.00;100949.81;6283497;20;2856565;-60
2023/01/24 01:29:49;;;;;;;;;31.33;28.00;;;;;3.76;100.00;100952.38;6281997;20;3598208;-60
2023/01/24 01:32:18;;;;;;;;;27.50;26.50;;;;;3.61;100.00;100951.69;6308678;20;2846130;-59
2023/01/24 01:34:48;;;;;;;;;45.67;36.67;;;;;3.51;100.00;100956.22;6278478;20;2870124;-59
2023/01/24 01:37:17;;;;;;;;;45.67;35.67;;;;;3.57;100.00;100949.94;6310427;20;3618002;-59
2023/01/24 01:39:47;;;;;;;;;44.33;36.33;;;;;3.17;100.00;100955.72;6311116;20;2852367;-59
2023/01/24 01:42:15;;;;;;;;;57.00;46.00;;;;;3.44;100.00;100958.97;6315084;20;2863891;-60
2023/01/24 01:44:49;;;;;;;;;39.33;36.67;;;;;3.33;100.00;100959.09;6279454;20;3611727;-60
2023/01/24 01:47:34;;;;;;;;;51.33;37.67;;;;;3.10;100.00;100958.47;6311599;20;3636827;-60
2023/01/24 01:50:31;;;;;;;;;42.00;40.00;;;;;3.06;100.00;100958.50;6308707;20;2848208;-59
2023/01/24 01:53:00;;;;;;;;;42.00;38.50;;;;;2.81;100.00;100957.84;6280951;20;2868019;-59
2023/01/24 01:55:36;;;;;;;;;41.00;36.00;;;;;3.02;100.00;100961.19;6281974;20;2869090;-60
2023/01/24 01:58:05;;;;;;;;;47.00;37.00;;;;;2.98;100.00;100959.47;6312810;20;2868027;-60
2023/01/24 02:00:35;;;;;;;;;44.67;37.00;;;;;2.96;100.00;100956.84;6278833;20;3618121;-59
2023/01/24 02:06:13;;;;;;;;;48.33;37.33;;;;;2.84;100.00;100962.25;6280454;20;2879458;-59
2023/01/24 02:08:43;;;;;;;;;56.00;43.00;;;;;2.79;100.00;100951.69;6311111;20;2856005;-59
2023/01/24 02:16:50;;;;;;;;;52.00;43.00;;;;;2.85;100.00;100954.28;6312575;20;2871375;-59
2023/01/24 02:19:41;;;;;;;;;48.67;43.00;;;;;2.68;100.00;100964.16;6311648;20;2860719;-59
2023/01/24 02:22:47;;;;;;;;;52.67;41.00;;;;;2.62;100.00;100966.88;6312532;20;3623223;-60
2023/01/24 02:25:37;;;;;;;;;58.00;44.00;;;;;2.69;100.00;100963.28;6311439;20;2870242;-59
2023/01/24 02:28:08;;;;;;;;;46.33;34.67;;;;;2.80;100.00;100966.72;6283086;20;2879451;-60
2023/01/24 02:30:39;;;;;;;;;52.33;41.00;;;;;2.58;100.00;100965.13;6308484;20;2873247;-60
2023/01/24 02:33:16;;;;;;;;;52.00;41.50;;;;;2.74;100.00;100965.88;6312284;20;2848198;-60
2023/01/24 02:35:47;;;;;;;;;51.67;41.00;;;;;2.59;100.00;100958.94;6281970;20;2872202;-60
2023/01/24 02:38:26;;;;;;;;;45.50;39.50;;;;;2.58;100.00;100965.13;6311239;20;2856556;-60
2023/01/24 02:41:06;;;;;;;;;58.33;43.67;;;;;2.52;100.00;100960.75;6280995;20;2863880;-60
2023/01/24 02:43:42;;;;;;;;;58.00;42.50;;;;;2.59;100.00;100970.44;6311977;20;2859661;-60
2023/01/24 02:46:11;;;;;;;;;48.00;39.00;;;;;2.72;100.00;100967.69;6280844;20;2864872;-59
2023/01/24 02:48:39;;;;;;;;;59.00;45.00;;;;;2.60;100.00;100968.66;6276672;20;2493128;-60
2023/01/24 02:53:56;;;;;;;;;51.67;43.67;;;;;2.58;100.00;100965.13;6279979;20;2858790;-59
2023/01/24 02:59:13;;;;;;;;;56.00;43.33;;;;;2.52;100.00;100967.84;6311223;20;2865881;-59
2023/01/24 03:01:42;;;;;;;;;59.50;47.00;;;;;2.56;100.00;100973.09;6310587;20;2862849;-60
2023/01/24 03:04:13;;;;;;;;;69.33;50.67;;;;;2.62;100.00;100973.03;6279783;20;3627339;-59
2023/01/24 03:06:42;;;;;;;;;72.67;54.00;;;;;2.58;100.00;100978.38;6310819;20;3657573;-60
2023/01/24 03:09:33;;;;;;;;;58.00;45.50;;;;;2.51;100.00;100972.25;6310605;20;2856574;-60
2023/01/24 03:34:33;;;;;;;;;73.00;53.00;;;;;2.30;100.00;100985.69;6318569;20;3637908;-60
2023/01/24 03:37:02;;;;;;;;;65.50;51.00;;;;;2.47;100.00;100988.19;6317327;20;2862806;-59
2023/01/24 03:42:19;;;;;;;;;65.33;50.33;;;;;2.51;100.00;100993.47;6284954;20;3631764;-60
2023/01/24 03:44:48;;;;;;;;;59.00;45.00;;;;;2.47;100.00;100993.50;6313371;20;2850379;-60
2023/01/24 03:47:16;;;;;;;;;58.50;45.00;;;;;2.59;100.00;100993.41;6285884;20;2865935;-59
2023/01/24 03:52:32;;;;;;;;;53.50;41.50;;;;;2.56;100.00;100986.38;6317189;20;2518133;-59
2023/01/24 03:55:01;;;;;;;;;45.00;40.00;;;;;2.45;100.00;100995.28;6284182;20;2859087;-60
2023/01/24 03:57:30;;;;;;;;;53.00;38.50;;;;;2.54;100.00;100995.22;6282853;20;2866051;-61
2023/01/24 04:00:00;;;;;;;;;52.00;42.00;;;;;2.51;100.00;100995.25;6284249;20;2879671;-60
2023/01/24 04:02:29;;;;;;;;;61.33;42.33;;;;;2.52;100.00;100991.69;6317520;20;2879445;-60
2023/01/24 04:05:13;;;;;;;;;56.50;46.00;;;;;2.49;100.00;100997.03;6316332;20;2856532;-60
2023/01/24 04:07:43;;;;;;;;;56.00;45.00;;;;;2.54;100.00;100997.88;6286133;20;2862950;-60
2023/01/24 04:10:13;;;;;;;;;55.67;42.00;;;;;2.48;100.00;100997.94;6279652;20;2873277;-60
2023/01/24 04:12:43;;;;;;;;;36.00;34.00;;;;;2.58;100.00;100999.59;6314137;20;2852405;-60
2023/01/24 04:15:27;;;;;;;;;51.00;43.50;;;;;2.57;100.00;101003.16;6279520;20;2854472;-61
2023/01/24 04:17:59;;;;;;;;;56.50;40.00;;;;;2.60;100.00;101001.34;6282425;20;2857603;-60
2023/01/24 04:20:34;;;;;;;;;46.00;38.00;;;;;2.55;100.00;100996.97;6281713;20;3629696;-60
2023/01/24 04:23:07;;;;;;;;;51.00;41.50;;;;;2.57;100.00;100995.19;6317460;20;2854410;-61
2023/01/24 04:25:35;;;;;;;;;56.00;45.00;;;;;2.61;100.00;100997.81;6286234;20;2854476;-60
2023/01/24 04:28:04;;;;;;;;;67.00;49.00;;;;;2.66;100.00;101002.19;6283533;20;2873201;-61
2023/01/24 04:30:33;;;;;;;;;62.50;49.00;;;;;2.46;100.00;100992.63;6277002;20;2859757;-60
2023/01/24 04:33:02;;;;;;;;;63.50;51.00;;;;;2.44;100.00;100998.81;6278271;20;2850328;-61
2023/01/24 04:35:31;;;;;;;;;55.00;44.50;;;;;2.37;100.00;100998.88;6284173;20;2865956;-60
2023/01/24 04:38:02;;;;;;;;;62.00;45.50;;;;;2.29;100.00;100990.09;6284223;20;2852902;-61
2023/01/24 04:40:31;;;;;;;;;44.50;38.50;;;;;2.19;100.00;101004.28;6278960;20;2864961;-61
2023/01/24 04:43:00;;;;;;;;;68.00;51.67;;;;;2.35;100.00;100998.00;6282866;20;2892156;-61
2023/01/24 04:45:30;;;;;;;;;70.33;49.67;;;;;2.45;100.00;101004.13;6311710;20;3638946;-61
2023/01/24 04:47:59;;;;;;;;;59.50;48.00;;;;;2.43;100.00;101003.25;6312038;20;2849393;-61
2023/01/24 04:50:27;;;;;;;;;63.00;49.00;;;;;2.47;100.00;101009.41;6282364;20;2880467;-61
2023/01/24 04:52:56;;;;;;;;;57.00;47.00;;;;;2.53;100.00;101009.38;6280570;20;2848213;-61
2023/01/24 04:55:26;;;;;;;;;64.33;49.33;;;;;2.38;100.00;100999.75;6283272;20;2874221;-61
2023/01/24 04:57:55;;;;;;;;;59.67;37.33;;;;;2.54;100.00;101009.34;6312125;20;3639865;-61
2023/01/24 05:00:24;;;;;;;;;60.50;45.50;;;;;2.42;100.00;101006.78;6309824;20;2859740;-61
2023/01/24 05:02:53;;;;;;;;;56.00;44.00;;;;;2.54;100.00;101014.66;6281743;20;2856921;-61
2023/01/24 05:05:21;;;;;;;;;57.00;45.50;;;;;2.60;100.00;101008.41;6284188;20;2857683;-61
2023/01/24 05:07:50;;;;;;;;;62.50;49.00;;;;;2.63;100.00;101005.75;6282691;20;2869157;-60
2023/01/24 05:10:23;;;;;;;;;62.33;50.67;;;;;2.32;100.00;101016.56;6280473;20;2871366;-61
2023/01/24 05:12:51;;;;;;;;;62.00;50.50;;;;;2.27;100.00;101018.38;6314270;20;2857611;-61
2023/01/24 05:15:22;;;;;;;;;63.50;49.50;;;;;2.58;100.00;101021.69;6278776;20;2876408;-61
2023/01/24 05:17:52;;;;;;;;;66.00;51.00;;;;;2.51;100.00;101016.44;6280457;20;2871226;-61
2023/01/24 05:20:21;;;;;;;;;66.67;49.33;;;;;2.42;100.00;101012.97;6279596;20;2885843;-61
2023/01/24 05:22:51;;;;;;;;;70.67;55.00;;;;;-146.39;100.00;84550.22;6310389;20;2885898;-61
2023/01/24 05:25:19;;;;;;;;;68.50;54.50;;;;;2.24;100.00;101022.78;6313806;20;2885736;-60
2023/01/24 05:27:50;;;;;;;;;72.33;55.00;;;;;2.32;100.00;101023.66;6281819;20;2892040;-61
2023/01/24 05:30:19;;;;;;;;;81.00;61.00;;;;;2.42;100.00;101015.63;6310966;20;3663813;-61
2023/01/24 05:32:49;;;;;;;;;79.33;59.67;;;;;2.17;100.00;101021.97;6314994;20;3635720;-60
2023/01/24 05:35:20;;;;;;;;;70.00;56.33;;;;;2.03;100.00;101018.50;6315041;20;2877465;-61
2023/01/24 05:37:51;;;;;;;;;79.00;60.33;;;;;2.06;100.00;101029.09;6313759;20;3651323;-61
2023/01/24 05:40:20;;;;;;;;;74.00;56.67;;;;;2.04;100.00;101028.22;6310916;20;3643028;-61
2023/01/24 05:42:50;;;;;;;;;79.00;58.67;;;;;2.01;100.00;101028.25;6312935;20;3645142;-61
2023/01/24 05:45:19;;;;;;;;;75.33;57.33;;;;;2.01;100.00;101025.59;6311448;20;2877415;-61
2023/01/24 05:47:49;;;;;;;;;80.00;61.67;;;;;1.89;100.00;101030.03;6311434;20;3622159;-61
2023/01/24 05:50:19;;;;;;;;;78.67;60.67;;;;;2.08;100.00;101033.50;6313481;20;3619036;-61
2023/01/24 05:52:48;;;;;;;;;77.67;59.67;;;;;2.00;100.00;101034.41;6315362;20;3633642;-61
2023/01/24 05:55:18;;;;;;;;;80.00;60.67;;;;;1.91;100.00;101038.84;6314237;20;3643994;-61
2023/01/24 05:57:47;;;;;;;;;77.00;59.00;;;;;1.97;100.00;101052.09;6309559;20;3643097;-60
2023/01/24 06:00:17;;;;;;;;;80.67;63.00;;;;;2.05;100.00;101043.22;6308645;20;3643075;-61
2023/01/24 06:02:47;;;;;;;;;84.33;64.67;;;;;1.91;100.00;101041.50;6313945;20;2893020;-61
2023/01/24 06:05:17;;;;;;;;;84.67;62.33;;;;;1.93;100.00;101042.38;6314089;20;3649241;-61
2023/01/24 06:07:46;;;;;;;;;84.33;63.67;;;;;1.89;100.00;101045.06;6309501;20;2895184;-60
2023/01/24 06:10:16;;;;;;;;;78.33;58.00;;;;;2.00;100.00;101037.94;6306636;20;3633572;-60
2023/01/24 06:12:45;;;;;;;;;82.00;60.00;;;;;1.85;100.00;101040.66;6314508;20;3639841;-61
2023/01/24 06:15:15;;;;;;;;;82.33;60.00;;;;;1.92;100.00;101040.63;6308985;20;3669153;-61
2023/01/24 06:17:45;;;;;;;;;89.00;66.33;;;;;1.81;100.00;101044.19;6307534;20;3642962;-61
2023/01/24 06:20:15;;;;;;;;;97.00;68.67;;;;;1.85;100.00;101036.25;6310689;20;3650278;-61
2023/01/24 06:23:26;;;;;;;;;115.75;91.25;;;;;1.79;100.00;101046.88;6308775;20;3700270;-61
2023/01/24 06:25:57;;;;;;;;;102.00;75.00;;;;;1.56;100.00;101038.13;6314265;20;3684767;-60
2023/01/24 06:28:27;;;;;;;;;88.67;67.00;;;;;1.78;100.00;101042.44;6281922;20;3642972;-60
2023/01/24 06:32:06;;;;;;;;;98.00;72.67;;;;;1.90;100.00;101049.47;6309363;20;3674240;-60
2023/01/24 06:35:17;;;;;;;;;113.67;85.67;;;;;1.84;100.00;101042.41;6280408;20;3735652;-60
2023/01/24 06:37:51;;;;;;;;;87.00;63.00;;;;;1.58;100.00;101037.25;6277746;20;3655463;-60
2023/01/24 06:40:24;;;;;;;;;81.67;59.33;;;;;1.82;100.00;101046.84;6313279;20;3651329;-60
2023/01/24 06:42:54;;;;;;;;;66.00;54.00;;;;;1.98;100.00;101053.84;6309542;20;2869049;-60
2023/01/24 06:45:23;;;;;;;;;66.00;51.33;;;;;2.17;100.00;101048.47;6281983;20;2864873;-60
2023/01/24 06:47:55;;;;;;;;;48.00;40.50;;;;;2.25;100.00;101043.13;6311160;20;2868998;-60
2023/01/24 06:50:31;;;;;;;;;62.50;46.00;;;;;2.56;100.00;101049.13;6278741;20;2879437;-60
2023/01/24 06:52:59;;;;;;;;;55.00;42.00;;;;;2.68;100.00;101050.78;6279772;20;2877400;-60
2023/01/24 06:55:30;;;;;;;;;55.67;41.00;;;;;2.68;100.00;101054.31;6281436;20;3643002;-60
2023/01/24 06:58:02;;;;;;;;;57.00;45.50;;;;;2.82;100.00;101059.53;6312779;20;2852324;-59
2023/01/24 07:00:31;;;;;;;;;61.00;47.50;;;;;2.85;100.00;101063.03;6284301;20;2854471;-60
2023/01/24 07:03:07;;;;;;;;;70.00;52.00;;;;;3.17;100.00;101061.00;6287964;20;2884274;-60
2023/01/24 07:05:38;;;;;;;;;65.00;50.67;;;;;3.33;100.00;101064.41;6316773;20;3627332;-60
2023/01/24 07:08:08;;;;;;;;;61.33;49.67;;;;;3.45;100.00;101065.16;6316874;20;2873286;-60
2023/01/24 07:10:38;;;;;;;;;74.00;55.33;;;;;3.43;100.00;101061.63;6316273;20;3623178;-61
2023/01/24 07:13:07;;;;;;;;;67.50;51.50;;;;;3.88;100.00;101069.13;6314584;20;2875257;-60
2023/01/24 07:15:37;;;;;;;;;63.67;48.33;;;;;4.12;100.00;101060.81;6284595;20;3633595;-60
2023/01/24 07:18:10;;;;;;;;;44.67;31.00;;;;;3.99;100.00;101072.50;6317465;20;2865057;-60
2023/01/24 07:20:39;;;;;;;;;53.33;32.67;;;;;4.19;100.00;101066.97;6315652;20;3565976;-60
2023/01/24 07:23:28;;;;;;;;;92.33;74.33;;;;;4.04;100.00;101073.34;6314589;20;3652443;-60
2023/01/24 07:25:58;;;;;;;;;75.67;59.33;;;;;3.83;100.00;101073.59;6313845;20;3634710;-60
2023/01/24 07:28:26;;;;;;;;;60.50;50.00;;;;;3.90;100.00;101081.50;6317028;20;2858611;-60
2023/01/24 07:30:55;;;;;;;;;62.50;52.00;;;;;4.06;100.00;101086.63;6285527;20;2860805;-61
2023/01/24 07:33:25;;;;;;;;;78.33;59.33;;;;;3.82;100.00;101093.06;6284775;20;3634768;-60
2023/01/24 07:35:55;;;;;;;;;83.33;64.00;;;;;3.94;100.00;101087.63;6312882;20;3636768;-60
2023/01/24 07:38:25;;;;;;;;;80.33;56.00;;;;;3.87;100.00;101086.84;6315749;20;3654425;-60
2023/01/24 07:40:54;;;;;;;;;77.00;55.67;;;;;4.03;100.00;101098.16;6313805;20;2882664;-60
2023/01/24 07:43:24;;;;;;;;;70.33;54.00;;;;;4.03;100.00;101097.25;6309540;20;2869091;-60
2023/01/24 07:45:53;;;;;;;;;74.67;56.00;;;;;3.95;100.00;101095.59;6315651;20;3648126;-60
2023/01/24 07:48:23;;;;;;;;;75.00;58.67;;;;;4.09;100.00;101092.75;6315147;20;3627403;-60
2023/01/24 07:50:52;;;;;;;;;68.33;50.33;;;;;4.17;100.00;101096.22;6316701;20;3631592;-60
2023/01/24 07:53:22;;;;;;;;;63.33;52.00;;;;;4.43;100.00;101102.97;6317667;20;3607593;-60
2023/01/24 07:55:51;;;;;;;;;63.50;50.50;;;;;4.57;100.00;101103.66;6319321;20;2871175;-60
2023/01/24 07:58:31;;;;;;;;;84.00;63.67;;;;;4.79;100.00;101106.00;6282368;20;3626330;-60
2023/01/24 08:01:01;;;;;;;;;98.67;80.33;;;;;4.79;100.00;101106.00;6311051;20;3689895;-61
2023/01/24 08:03:31;;;;;;;;;98.00;78.33;;;;;4.86;100.00;101107.66;6282618;20;3700299;-60
2023/01/24 08:06:03;;;;;;;;;87.67;65.00;;;;;5.25;100.00;101116.81;6283555;20;3645488;-60
2023/01/24 08:08:32;;;;;;;;;63.00;47.00;;;;;4.95;100.00;101110.19;6312205;20;2882626;-60
2023/01/24 08:11:01;;;;;;;;;60.00;48.00;;;;;5.12;100.00;101115.25;6280363;20;2854487;-60
2023/01/24 08:13:30;;;;;;;;;80.33;60.67;;;;;5.02;100.00;101111.84;6282637;20;3651332;-60
2023/01/24 08:16:03;;;;;;;;;63.00;49.00;;;;;5.28;100.00;101123.84;6314226;20;2860713;-60
2023/01/24 08:18:32;;;;;;;;;59.50;49.00;;;;;5.57;99.29;101122.47;6281572;20;2858099;-60
2023/01/24 08:21:00;;;;;;;;;56.00;47.50;;;;;5.38;98.57;101120.13;6279706;20;2854480;-60
2023/01/24 08:23:29;;;;;;;;;62.00;51.50;;;;;5.65;98.39;101125.88;6282360;20;2852414;-60
2023/01/24 08:26:00;;;;;;;;;62.33;49.67;;;;;5.41;98.78;101125.41;6279316;20;3610773;-60
2023/01/24 08:28:31;;;;;;;;;60.00;48.00;;;;;5.38;99.39;101128.13;6311980;20;2860784;-60
2023/01/24 08:30:59;;;;;;;;;48.50;39.00;;;;;5.60;98.44;101135.75;6309632;20;2495216;-60
2023/01/24 08:33:28;;;;;;;;;65.33;50.00;;;;;5.58;98.69;101134.88;6281853;20;3627321;-60
2023/01/24 08:36:02;;;;;;;;;78.33;59.00;;;;;5.54;98.36;101143.84;6312679;20;3649227;-61
2023/01/24 08:38:31;;;;;;;;;72.00;58.00;;;;;5.62;98.17;101144.59;6316293;20;3630537;-60
2023/01/24 08:41:04;;;;;;;;;59.50;47.50;;;;;5.63;98.81;101147.22;6310168;20;2858615;-60
2023/01/24 08:43:37;;;;;;;;;65.33;48.67;;;;;5.60;99.61;101143.72;6279612;20;3627425;-60
2023/01/24 08:46:07;;;;;;;;;64.67;50.00;;;;;5.38;100.00;101141.44;6314927;20;2873306;-61
2023/01/24 08:48:37;;;;;;;;;68.67;54.00;;;;;5.53;100.00;101139.41;6315534;20;3629435;-61
2023/01/24 08:51:06;;;;;;;;;65.00;50.00;;;;;5.64;100.00;101146.31;6312847;20;3625395;-61
2023/01/24 08:53:36;;;;;;;;;64.33;50.33;;;;;5.67;100.00;101145.38;6314271;20;2864947;-61
2023/01/24 08:56:09;;;;;;;;;66.67;51.67;;;;;5.59;99.68;101152.66;6315977;20;3620046;-61
2023/01/24 08:58:38;;;;;;;;;82.00;60.33;;;;;5.72;99.86;101139.06;6316661;20;3654564;-61
2023/01/24 09:01:09;;;;;;;;;73.67;58.33;;;;;5.80;99.32;101143.38;6278110;20;2879599;-61
2023/01/24 09:03:39;;;;;;;;;71.67;54.00;;;;;6.04;98.11;101150.06;6317316;20;3644024;-59
2023/01/24 09:06:07;;;;;;;;;60.00;51.00;;;;;5.97;97.53;101149.28;6280381;20;2500304;-59
2023/01/24 09:08:36;;;;;;;;;62.50;50.00;;;;;6.24;96.85;101147.91;6285593;20;2860697;-59
2023/01/24 09:11:05;;;;;;;;;67.33;53.33;;;;;6.19;96.42;101144.44;6283555;20;2874324;-59
2023/01/24 09:13:35;;;;;;;;;73.33;55.33;;;;;6.11;96.65;101146.38;6313596;20;3638845;-59
2023/01/24 09:16:05;;;;;;;;;67.33;53.33;;;;;6.00;97.25;101143.91;6313484;20;3613859;-59
2023/01/24 09:18:35;;;;;;;;;70.67;56.00;;;;;6.30;97.04;101145.09;6312745;20;3627385;-60
2023/01/24 09:21:05;;;;;;;;;87.33;64.00;;;;;6.01;98.13;101140.34;6311955;20;3654447;-60
2023/01/24 09:23:34;;;;;;;;;73.00;59.00;;;;;6.06;98.64;101137.59;6281602;20;2872303;-59
2023/01/24 09:26:04;;;;;;;;;60.33;48.00;;;;;6.14;98.84;101138.31;6284017;20;3609652;-60
2023/01/24 09:28:34;;;;;;;;;62.33;50.33;;;;;6.10;98.98;101150.81;6316502;20;2875456;-59
2023/01/24 09:31:06;;;;;;;;;56.00;46.00;;;;;6.31;97.95;101144.16;6312188;20;2861814;-59
2023/01/24 09:33:35;;;;;;;;;44.50;41.50;;;;;6.25;97.67;101146.09;6314844;20;2851341;-58
2023/01/24 09:36:10;;;;;;;;;52.00;42.00;;;;;6.37;97.85;101156.50;6284851;20;2862800;-58
2023/01/24 09:38:39;;;;;;;;;55.67;44.00;;;;;6.45;97.37;101153.69;6282391;20;2860678;-61
2023/01/24 09:41:29;;;;;;;;;50.50;41.00;;;;;6.74;97.09;101142.38;6313265;20;2834690;-60
2023/01/24 09:44:15;;;;;;;;;53.50;42.00;;;;;6.90;95.30;101145.56;6281525;20;2856586;-61
2023/01/24 09:46:50;;;;;;;;;47.33;37.67;;;;;6.82;94.37;101141.31;6281817;20;2874325;-61
2023/01/24 09:49:40;;;;;;;;;54.00;43.00;;;;;6.90;94.11;101138.47;6315437;20;2845061;-61
2023/01/24 09:52:44;;;;;;;;;55.33;42.33;;;;;6.80;94.28;101140.44;6281203;20;2861727;-61
2023/01/24 09:55:34;;;;;;;;;62.00;49.00;;;;;7.11;94.99;101139.75;6312084;20;3621138;-61
2023/01/24 09:58:43;;;;;;;;;55.00;43.00;;;;;7.47;92.85;101129.91;6316065;20;2859724;-62
2023/01/24 10:01:16;;;;;;;;;50.67;39.00;;;;;7.41;92.04;101132.75;6311241;20;2866054;-62
2023/01/24 10:03:46;;;;;;;;;51.00;40.33;;;;;7.89;90.69;101131.50;6312855;20;2886941;-62
2023/01/24 10:06:29;;;;;;;;;43.00;38.67;;;;;7.66;90.04;101130.34;6316533;20;2857735;-61
2023/01/24 10:09:49;;;;;;;;;31.50;30.00;;;;;7.49;89.14;101132.56;6314999;20;2858619;-60
2023/01/24 10:12:59;;;;;;;;;28.00;28.00;;;;;7.33;88.32;101132.06;6284716;20;3596093;-62
2023/01/24 10:15:53;;;;;;;;;41.00;37.00;;;;;7.64;88.28;101137.53;6309861;20;2858619;-61
2023/01/24 10:19:06;;;;;;;;;50.67;42.00;;;;;7.58;88.50;101124.34;6282012;20;2872206;-62
2023/01/24 10:22:28;;;;;;;;;48.00;39.67;;;;;7.45;89.12;101120.19;6314802;20;2867061;-61
2023/01/24 10:25:56;;;;;;;;;45.67;36.67;;;;;7.62;88.93;101120.63;6306063;20;2871181;-61
2023/01/24 10:28:38;;;;;;;;;32.67;28.67;;;;;7.67;88.85;101124.06;6311745;20;3588891;-60
2023/01/24 10:31:17;;;;;;;;;29.33;27.00;;;;;7.52;88.51;101119.13;6275317;20;2850293;-60
2023/01/24 10:33:53;;;;;;;;;42.00;34.00;;;;;7.58;88.61;101112.72;6318437;20;3622151;-60
2023/01/24 10:36:50;;;;;;;;;26.50;23.50;;;;;7.54;87.62;101111.06;6284262;20;2846223;-61
2023/01/24 10:39:19;;;;;;;;;45.67;36.67;;;;;7.66;87.47;101108.06;6286058;20;2873182;-61
2023/01/24 10:41:48;;;;;;;;;44.00;37.00;;;;;7.72;87.51;101101.69;6319653;20;3602419;-61
2023/01/24 10:44:30;;;;;;;;;41.00;34.33;;;;;7.83;87.08;101094.25;6289632;20;2852342;-61
2023/01/24 10:47:41;;;;;;;;;50.75;36.50;;;;;7.95;86.21;101104.59;6322689;20;3636756;-61
2023/01/24 10:50:18;;;;;;;;;35.00;30.67;;;;;8.11;85.23;101105.94;6314684;20;3609734;-60
2023/01/24 10:52:50;;;;;;;;;51.00;38.33;;;;;8.26;85.49;101093.88;6317814;20;3598303;-59
2023/01/24 10:55:35;;;;;;;;;63.00;50.33;;;;;8.50;84.06;101092.31;6288632;20;3625702;-61
2023/01/24 10:58:32;;;;;;;;;75.75;54.50;;;;;8.61;82.49;101093.78;6321917;20;3651444;-61
2023/01/24 11:01:17;;;;;;;;;65.33;49.67;;;;;8.70;83.12;101083.69;6314317;20;3625327;-62
2023/01/24 11:03:50;;;;;;;;;46.00;34.33;;;;;8.20;82.83;101078.03;6316504;20;3620091;-61
2023/01/24 11:06:40;;;;;;;;;38.00;31.00;;;;;8.43;83.01;101082.75;6288388;20;3610698;-61
2023/01/24 11:09:19;;;;;;;;;28.33;24.33;;;;;8.26;82.23;101074.28;6284838;20;2858190;-61
2023/01/24 11:11:56;;;;;;;;;33.33;26.67;;;;;8.95;81.91;101075.75;6314730;20;2844127;-62
2023/01/24 11:14:36;;;;;;;;;27.00;21.00;;;;;9.04;78.76;101079.06;6317676;20;3585799;-62
2023/01/24 11:17:35;;;;;;;;;34.33;30.67;;;;;8.78;81.67;101076.28;6281685;20;3595090;-61
2023/01/24 11:20:35;;;;;;;;;47.50;40.00;;;;;8.71;77.43;101072.03;6314609;20;2842003;-62
2023/01/24 11:23:21;;;;;;;;;58.50;47.00;;;;;8.66;77.60;101068.66;6283986;20;2857602;-60
2023/01/24 11:26:01;;;;;;;;;25.00;25.00;;;;;8.51;78.05;101066.44;6282562;20;2843180;-62
2023/01/24 11:28:37;;;;;;;;;25.00;22.50;;;;;8.65;79.11;101063.34;6282349;20;2842986;-61
2023/01/24 11:31:24;;;;;;;;;34.00;29.00;;;;;8.88;79.00;101060.78;6278841;20;2861889;-61
2023/01/24 11:34:45;;;;;;;;;32.67;27.67;;;;;9.08;78.42;101053.91;6285169;20;2856710;-61
2023/01/24 11:37:51;;;;;;;;;17.00;13.50;;;;;8.95;75.22;101056.09;6316470;20;2812831;-61
2023/01/24 11:41:03;;;;;;;;;31.00;27.00;;;;;8.74;78.50;101055.00;6285033;20;3603411;-61
2023/01/24 11:44:29;;;;;;;;;40.33;36.67;;;;;8.60;77.43;101055.44;6317351;20;2851516;-61
2023/01/24 11:47:19;;;;;;;;;41.00;34.00;;;;;8.74;77.26;101046.97;6314885;20;3613787;-61
2023/01/24 11:50:05;;;;;;;;;21.00;17.00;;;;;8.51;78.13;101055.75;6319421;20;3566930;-61
2023/01/24 11:52:53;;;;;;;;;20.00;20.00;;;;;8.36;78.58;101046.34;6283373;20;2487782;-61
2023/01/24 11:55:57;;;;;;;;;19.33;17.00;;;;;8.18;79.10;101044.22;6285938;20;3549201;-61
2023/01/24 11:58:57;;;;;;;;;19.00;18.00;;;;;8.18;79.83;101046.91;6283557;20;3559734;-61
2023/01/24 12:02:20;;;;;;;;;26.00;19.00;;;;;8.14;80.67;101035.41;6283730;20;2492023;-61
2023/01/24 12:05:31;;;;;;;;;27.00;26.50;;;;;8.45;79.87;101032.72;6284150;20;2842994;-60
2023/01/24 12:08:29;;;;;;;;;22.50;22.50;;;;;8.34;79.42;101032.13;6288055;20;2833733;-61
2023/01/24 12:11:46;;;;;;;;;29.00;24.00;;;;;8.36;80.24;101035.63;6282972;20;2850282;-60
2023/01/24 12:14:44;;;;;;;;;38.00;33.33;;;;;8.52;80.44;101042.28;6285571;20;3612788;-61
2023/01/24 12:17:42;;;;;;;;;47.00;38.00;;;;;8.43;80.45;101037.25;6319057;20;3623193;-61